sensor_id;sensor_type;location;lat;lon;timestamp;P1;durP1;ratioP1;P2;durP2;ratioP2
40959;SDS011;27842;52.272;8.052;2023-11-22T00:00:05;17.17;;;6.40;;
40959;SDS011;27842;52.272;8.052;2023-11-22T00:02:32;14.97;;;6.10;;
40959;SDS011;27842;52.272;8.052;2023-11-22T00:04:58;15.43;;;6.30;;
40959;SDS011;27842;52.272;8.052;2023-11-22T00:07:23;15.80;;;5.67;;
40959;SDS011;27842;52.272;8.052;2023-11-22T00:09:49;13.53;;;5.60;;
40959;SDS011;27842;52.272;8.052;2023-11-22T00:12:14;16.20;;;6.80;;
40959;SDS011;27842;52.272;8.052;2023-11-22T00:14:42;16.50;;;6.23;;
40959;SDS011;27842;52.272;8.052;2023-11-22T00:17:08;14.70;;;6.13;;
40959;SDS011;27842;52.272;8.052;2023-11-22T00:19:34;17.67;;;6.50;;
40959;SDS011;27842;52.272;8.052;2023-11-22T00:21:59;17.23;;;5.93;;
40959;SDS011;27842;52.272;8.052;2023-11-22T00:24:25;15.73;;;6.20;;
40959;SDS011;27842;52.272;8.052;2023-11-22T00:26:51;15.30;;;5.70;;
40959;SDS011;27842;52.272;8.052;2023-11-22T00:29:16;15.53;;;6.23;;
40959;SDS011;27842;52.272;8.052;2023-11-22T00:31:42;15.57;;;6.30;;
40959;SDS011;27842;52.272;8.052;2023-11-22T00:34:09;14.53;;;5.97;;
40959;SDS011;27842;52.272;8.052;2023-11-22T00:36:35;17.30;;;6.90;;
40959;SDS011;27842;52.272;8.052;2023-11-22T00:39:01;16.20;;;6.33;;
40959;SDS011;27842;52.272;8.052;2023-11-22T00:41:31;17.63;;;6.77;;
40959;SDS011;27842;52.272;8.052;2023-11-22T00:43:56;15.90;;;6.70;;
40959;SDS011;27842;52.272;8.052;2023-11-22T00:46:22;15.10;;;6.10;;
40959;SDS011;27842;52.272;8.052;2023-11-22T00:48:48;15.50;;;6.70;;
40959;SDS011;27842;52.272;8.052;2023-11-22T00:51:15;16.20;;;7.07;;
40959;SDS011;27842;52.272;8.052;2023-11-22T00:53:41;17.50;;;7.33;;
40959;SDS011;27842;52.272;8.052;2023-11-22T00:56:06;16.43;;;6.83;;
40959;SDS011;27842;52.272;8.052;2023-11-22T00:58:32;16.90;;;6.43;;
40959;SDS011;27842;52.272;8.052;2023-11-22T01:00:57;16.03;;;6.43;;
40959;SDS011;27842;52.272;8.052;2023-11-22T01:03:23;17.77;;;6.70;;
40959;SDS011;27842;52.272;8.052;2023-11-22T01:05:49;16.83;;;7.03;;
40959;SDS011;27842;52.272;8.052;2023-11-22T01:08:14;17.47;;;6.97;;
40959;SDS011;27842;52.272;8.052;2023-11-22T01:10:40;15.17;;;6.13;;
40959;SDS011;27842;52.272;8.052;2023-11-22T01:13:05;16.80;;;6.30;;
40959;SDS011;27842;52.272;8.052;2023-11-22T01:15:31;17.57;;;6.73;;
40959;SDS011;27842;52.272;8.052;2023-11-22T01:17:57;17.93;;;7.00;;
40959;SDS011;27842;52.272;8.052;2023-11-22T01:20:22;17.27;;;7.00;;
40959;SDS011;27842;52.272;8.052;2023-11-22T01:22:48;15.30;;;6.30;;
40959;SDS011;27842;52.272;8.052;2023-11-22T01:25:14;17.13;;;7.37;;
40959;SDS011;27842;52.272;8.052;2023-11-22T01:27:40;17.30;;;7.00;;
40959;SDS011;27842;52.272;8.052;2023-11-22T01:30:06;19.00;;;7.30;;
40959;SDS011;27842;52.272;8.052;2023-11-22T01:32:34;15.55;;;6.13;;
40959;SDS011;27842;52.272;8.052;2023-11-22T01:35:01;15.77;;;6.40;;
40959;SDS011;27842;52.272;8.052;2023-11-22T01:37:26;14.40;;;5.90;;
40959;SDS011;27842;52.272;8.052;2023-11-22T01:39:52;17.53;;;6.63;;
40959;SDS011;27842;52.272;8.052;2023-11-22T01:42:19;15.47;;;6.67;;
40959;SDS011;27842;52.272;8.052;2023-11-22T01:44:45;15.70;;;6.50;;
40959;SDS011;27842;52.272;8.052;2023-11-22T01:47:12;17.03;;;6.70;;
40959;SDS011;27842;52.272;8.052;2023-11-22T01:49:39;16.80;;;6.80;;
40959;SDS011;27842;52.272;8.052;2023-11-22T01:52:05;16.67;;;6.60;;
40959;SDS011;27842;52.272;8.052;2023-11-22T01:54:31;16.43;;;6.50;;
40959;SDS011;27842;52.272;8.052;2023-11-22T01:56:57;15.17;;;6.17;;
40959;SDS011;27842;52.272;8.052;2023-11-22T01:59:25;17.70;;;6.43;;
40959;SDS011;27842;52.272;8.052;2023-11-22T02:01:53;16.33;;;6.70;;
40959;SDS011;27842;52.272;8.052;2023-11-22T02:04:19;15.17;;;6.10;;
40959;SDS011;27842;52.272;8.052;2023-11-22T02:06:46;16.83;;;6.33;;
40959;SDS011;27842;52.272;8.052;2023-11-22T02:09:12;15.87;;;6.03;;
40959;SDS011;27842;52.272;8.052;2023-11-22T02:11:40;15.02;;;5.97;;
40959;SDS011;27842;52.272;8.052;2023-11-22T02:14:07;16.50;;;6.67;;
40959;SDS011;27842;52.272;8.052;2023-11-22T02:16:34;16.40;;;6.70;;
40959;SDS011;27842;52.272;8.052;2023-11-22T02:19:00;16.10;;;6.00;;
40959;SDS011;27842;52.272;8.052;2023-11-22T02:21:26;18.87;;;7.13;;
40959;SDS011;27842;52.272;8.052;2023-11-22T02:23:51;15.97;;;6.60;;
40959;SDS011;27842;52.272;8.052;2023-11-22T02:26:17;17.63;;;7.10;;
40959;SDS011;27842;52.272;8.052;2023-11-22T02:28:43;17.40;;;6.43;;
40959;SDS011;27842;52.272;8.052;2023-11-22T02:31:09;16.10;;;7.13;;
40959;SDS011;27842;52.272;8.052;2023-11-22T02:33:35;15.83;;;6.23;;
40959;SDS011;27842;52.272;8.052;2023-11-22T02:36:01;16.17;;;6.67;;
40959;SDS011;27842;52.272;8.052;2023-11-22T02:38:27;15.90;;;6.63;;
40959;SDS011;27842;52.272;8.052;2023-11-22T02:40:53;15.33;;;6.77;;
40959;SDS011;27842;52.272;8.052;2023-11-22T02:43:19;16.83;;;6.70;;
40959;SDS011;27842;52.272;8.052;2023-11-22T02:45:45;17.60;;;6.87;;
40959;SDS011;27842;52.272;8.052;2023-11-22T02:48:11;16.03;;;7.03;;
40959;SDS011;27842;52.272;8.052;2023-11-22T02:50:38;17.83;;;7.30;;
40959;SDS011;27842;52.272;8.052;2023-11-22T02:53:04;17.10;;;6.23;;
40959;SDS011;27842;52.272;8.052;2023-11-22T02:55:30;15.63;;;6.33;;
40959;SDS011;27842;52.272;8.052;2023-11-22T02:57:55;16.50;;;7.47;;
40959;SDS011;27842;52.272;8.052;2023-11-22T03:00:21;16.70;;;6.87;;
40959;SDS011;27842;52.272;8.052;2023-11-22T03:02:47;17.83;;;6.23;;
40959;SDS011;27842;52.272;8.052;2023-11-22T03:05:18;19.53;;;7.20;;
40959;SDS011;27842;52.272;8.052;2023-11-22T03:07:45;15.50;;;6.60;;
40959;SDS011;27842;52.272;8.052;2023-11-22T03:10:10;16.67;;;6.87;;
40959;SDS011;27842;52.272;8.052;2023-11-22T03:12:36;18.63;;;6.87;;
40959;SDS011;27842;52.272;8.052;2023-11-22T03:15:02;14.73;;;6.27;;
40959;SDS011;27842;52.272;8.052;2023-11-22T03:17:28;15.87;;;6.10;;
40959;SDS011;27842;52.272;8.052;2023-11-22T03:19:55;16.80;;;6.70;;
40959;SDS011;27842;52.272;8.052;2023-11-22T03:22:22;16.67;;;6.93;;
40959;SDS011;27842;52.272;8.052;2023-11-22T03:24:50;15.48;;;6.00;;
40959;SDS011;27842;52.272;8.052;2023-11-22T03:27:16;16.77;;;6.47;;
40959;SDS011;27842;52.272;8.052;2023-11-22T03:29:42;15.73;;;6.30;;
40959;SDS011;27842;52.272;8.052;2023-11-22T03:32:09;17.67;;;6.17;;
40959;SDS011;27842;52.272;8.052;2023-11-22T03:34:36;15.97;;;6.30;;
40959;SDS011;27842;52.272;8.052;2023-11-22T03:37:02;17.13;;;6.40;;
40959;SDS011;27842;52.272;8.052;2023-11-22T03:39:27;17.73;;;6.97;;
40959;SDS011;27842;52.272;8.052;2023-11-22T03:41:53;16.80;;;6.67;;
40959;SDS011;27842;52.272;8.052;2023-11-22T03:44:18;15.60;;;6.43;;
40959;SDS011;27842;52.272;8.052;2023-11-22T03:46:44;20.13;;;6.60;;
40959;SDS011;27842;52.272;8.052;2023-11-22T03:49:09;16.00;;;6.20;;
40959;SDS011;27842;52.272;8.052;2023-11-22T03:51:36;18.13;;;6.50;;
40959;SDS011;27842;52.272;8.052;2023-11-22T03:54:04;19.27;;;5.90;;
40959;SDS011;27842;52.272;8.052;2023-11-22T03:56:30;16.03;;;5.93;;
40959;SDS011;27842;52.272;8.052;2023-11-22T03:58:56;16.77;;;6.33;;
40959;SDS011;27842;52.272;8.052;2023-11-22T04:01:21;16.93;;;6.80;;
40959;SDS011;27842;52.272;8.052;2023-11-22T04:03:47;16.00;;;6.57;;
40959;SDS011;27842;52.272;8.052;2023-11-22T04:06:16;18.52;;;6.80;;
40959;SDS011;27842;52.272;8.052;2023-11-22T04:08:44;15.20;;;6.33;;
40959;SDS011;27842;52.272;8.052;2023-11-22T04:11:10;16.53;;;6.30;;
40959;SDS011;27842;52.272;8.052;2023-11-22T04:13:39;16.63;;;6.60;;
40959;SDS011;27842;52.272;8.052;2023-11-22T04:16:05;15.07;;;6.13;;
40959;SDS011;27842;52.272;8.052;2023-11-22T04:18:36;16.23;;;6.57;;
40959;SDS011;27842;52.272;8.052;2023-11-22T04:21:05;17.15;;;6.63;;
40959;SDS011;27842;52.272;8.052;2023-11-22T04:23:31;16.40;;;6.23;;
40959;SDS011;27842;52.272;8.052;2023-11-22T04:25:57;15.73;;;6.63;;
40959;SDS011;27842;52.272;8.052;2023-11-22T04:28:24;14.33;;;5.57;;
40959;SDS011;27842;52.272;8.052;2023-11-22T04:30:50;17.03;;;6.37;;
40959;SDS011;27842;52.272;8.052;2023-11-22T04:33:17;15.30;;;6.00;;
40959;SDS011;27842;52.272;8.052;2023-11-22T04:35:43;15.60;;;6.33;;
40959;SDS011;27842;52.272;8.052;2023-11-22T04:38:08;15.47;;;6.50;;
40959;SDS011;27842;52.272;8.052;2023-11-22T04:40:34;17.90;;;7.50;;
40959;SDS011;27842;52.272;8.052;2023-11-22T04:42:59;15.83;;;6.37;;
40959;SDS011;27842;52.272;8.052;2023-11-22T04:45:25;17.27;;;6.77;;
40959;SDS011;27842;52.272;8.052;2023-11-22T04:47:51;16.13;;;6.87;;
40959;SDS011;27842;52.272;8.052;2023-11-22T04:50:16;17.10;;;6.87;;
40959;SDS011;27842;52.272;8.052;2023-11-22T04:52:42;16.90;;;6.33;;
40959;SDS011;27842;52.272;8.052;2023-11-22T04:55:08;16.10;;;6.83;;
40959;SDS011;27842;52.272;8.052;2023-11-22T04:57:34;15.87;;;6.87;;
40959;SDS011;27842;52.272;8.052;2023-11-22T04:59:59;16.83;;;6.70;;
40959;SDS011;27842;52.272;8.052;2023-11-22T05:02:25;18.00;;;7.20;;
40959;SDS011;27842;52.272;8.052;2023-11-22T05:04:52;18.50;;;7.10;;
40959;SDS011;27842;52.272;8.052;2023-11-22T05:07:18;18.20;;;7.37;;
40959;SDS011;27842;52.272;8.052;2023-11-22T05:09:46;15.90;;;6.70;;
40959;SDS011;27842;52.272;8.052;2023-11-22T05:12:12;17.90;;;7.53;;
40959;SDS011;27842;52.272;8.052;2023-11-22T05:14:37;16.23;;;6.27;;
40959;SDS011;27842;52.272;8.052;2023-11-22T05:17:04;16.33;;;6.40;;
40959;SDS011;27842;52.272;8.052;2023-11-22T05:19:30;16.03;;;6.97;;
40959;SDS011;27842;52.272;8.052;2023-11-22T05:21:56;15.57;;;7.07;;
40959;SDS011;27842;52.272;8.052;2023-11-22T05:24:22;17.80;;;6.70;;
40959;SDS011;27842;52.272;8.052;2023-11-22T05:26:48;18.27;;;7.70;;
40959;SDS011;27842;52.272;8.052;2023-11-22T05:29:14;17.03;;;6.50;;
40959;SDS011;27842;52.272;8.052;2023-11-22T05:31:39;16.70;;;7.13;;
40959;SDS011;27842;52.272;8.052;2023-11-22T05:34:06;16.83;;;7.03;;
40959;SDS011;27842;52.272;8.052;2023-11-22T05:36:31;18.37;;;8.17;;
40959;SDS011;27842;52.272;8.052;2023-11-22T05:38:57;18.43;;;7.03;;
40959;SDS011;27842;52.272;8.052;2023-11-22T05:41:26;15.97;;;6.77;;
40959;SDS011;27842;52.272;8.052;2023-11-22T05:43:54;18.40;;;7.23;;
40959;SDS011;27842;52.272;8.052;2023-11-22T05:46:21;17.17;;;6.90;;
40959;SDS011;27842;52.272;8.052;2023-11-22T05:48:50;16.67;;;7.43;;
40959;SDS011;27842;52.272;8.052;2023-11-22T05:53:42;16.63;;;6.83;;
40959;SDS011;27842;52.272;8.052;2023-11-22T05:56:07;18.90;;;7.23;;
40959;SDS011;27842;52.272;8.052;2023-11-22T05:58:36;17.97;;;7.07;;
40959;SDS011;27842;52.272;8.052;2023-11-22T06:01:03;17.97;;;6.90;;
40959;SDS011;27842;52.272;8.052;2023-11-22T06:03:29;17.80;;;7.63;;
40959;SDS011;27842;52.272;8.052;2023-11-22T06:05:55;19.13;;;7.57;;
40959;SDS011;27842;52.272;8.052;2023-11-22T06:08:22;17.63;;;7.07;;
40959;SDS011;27842;52.272;8.052;2023-11-22T06:10:48;20.97;;;8.53;;
40959;SDS011;27842;52.272;8.052;2023-11-22T06:13:13;19.10;;;8.27;;
40959;SDS011;27842;52.272;8.052;2023-11-22T06:15:39;16.73;;;7.23;;
40959;SDS011;27842;52.272;8.052;2023-11-22T06:18:05;16.23;;;7.43;;
40959;SDS011;27842;52.272;8.052;2023-11-22T06:20:31;17.73;;;7.03;;
40959;SDS011;27842;52.272;8.052;2023-11-22T06:22:57;17.63;;;7.27;;
40959;SDS011;27842;52.272;8.052;2023-11-22T06:25:22;18.53;;;8.47;;
40959;SDS011;27842;52.272;8.052;2023-11-22T06:27:48;17.90;;;7.50;;
40959;SDS011;27842;52.272;8.052;2023-11-22T06:30:14;18.73;;;7.17;;
40959;SDS011;27842;52.272;8.052;2023-11-22T06:32:42;17.33;;;7.87;;
40959;SDS011;27842;52.272;8.052;2023-11-22T06:37:36;17.40;;;7.07;;
40959;SDS011;27842;52.272;8.052;2023-11-22T06:40:06;18.60;;;7.40;;
40959;SDS011;27842;52.272;8.052;2023-11-22T06:42:37;17.50;;;7.20;;
40959;SDS011;27842;52.272;8.052;2023-11-22T06:45:04;16.00;;;7.20;;
40959;SDS011;27842;52.272;8.052;2023-11-22T06:47:54;19.30;;;7.93;;
40959;SDS011;27842;52.272;8.052;2023-11-22T06:50:20;17.67;;;7.37;;
40959;SDS011;27842;52.272;8.052;2023-11-22T06:52:46;17.10;;;7.50;;
40959;SDS011;27842;52.272;8.052;2023-11-22T06:55:14;18.60;;;7.10;;
40959;SDS011;27842;52.272;8.052;2023-11-22T06:57:39;18.20;;;7.20;;
40959;SDS011;27842;52.272;8.052;2023-11-22T07:00:05;17.53;;;7.13;;
40959;SDS011;27842;52.272;8.052;2023-11-22T07:02:34;16.27;;;7.35;;
40959;SDS011;27842;52.272;8.052;2023-11-22T07:05:09;17.27;;;7.90;;
40959;SDS011;27842;52.272;8.052;2023-11-22T07:07:35;16.47;;;7.57;;
40959;SDS011;27842;52.272;8.052;2023-11-22T07:10:01;16.90;;;7.33;;
40959;SDS011;27842;52.272;8.052;2023-11-22T07:12:27;18.17;;;7.47;;
40959;SDS011;27842;52.272;8.052;2023-11-22T07:14:54;16.97;;;7.53;;
40959;SDS011;27842;52.272;8.052;2023-11-22T07:17:20;18.23;;;7.87;;
40959;SDS011;27842;52.272;8.052;2023-11-22T07:19:47;17.60;;;7.00;;
40959;SDS011;27842;52.272;8.052;2023-11-22T07:22:13;18.57;;;7.20;;
40959;SDS011;27842;52.272;8.052;2023-11-22T07:24:44;19.23;;;7.73;;
40959;SDS011;27842;52.272;8.052;2023-11-22T07:27:12;17.70;;;7.20;;
40959;SDS011;27842;52.272;8.052;2023-11-22T07:29:41;18.35;;;7.22;;
40959;SDS011;27842;52.272;8.052;2023-11-22T07:32:26;18.00;;;7.40;;
40959;SDS011;27842;52.272;8.052;2023-11-22T07:34:51;17.83;;;7.10;;
40959;SDS011;27842;52.272;8.052;2023-11-22T07:37:20;19.00;;;8.10;;
40959;SDS011;27842;52.272;8.052;2023-11-22T07:39:46;17.57;;;7.30;;
40959;SDS011;27842;52.272;8.052;2023-11-22T07:42:12;18.83;;;8.17;;
40959;SDS011;27842;52.272;8.052;2023-11-22T07:44:38;19.77;;;7.77;;
40959;SDS011;27842;52.272;8.052;2023-11-22T07:49:39;18.30;;;8.53;;
40959;SDS011;27842;52.272;8.052;2023-11-22T07:52:06;17.97;;;7.67;;
40959;SDS011;27842;52.272;8.052;2023-11-22T07:54:32;18.70;;;7.60;;
40959;SDS011;27842;52.272;8.052;2023-11-22T07:56:58;19.63;;;8.40;;
40959;SDS011;27842;52.272;8.052;2023-11-22T07:59:24;18.53;;;7.80;;
40959;SDS011;27842;52.272;8.052;2023-11-22T08:01:50;20.77;;;8.57;;
40959;SDS011;27842;52.272;8.052;2023-11-22T08:04:18;17.70;;;7.70;;
40959;SDS011;27842;52.272;8.052;2023-11-22T08:06:44;18.57;;;7.53;;
40959;SDS011;27842;52.272;8.052;2023-11-22T08:09:10;22.10;;;8.47;;
40959;SDS011;27842;52.272;8.052;2023-11-22T08:11:36;21.60;;;8.30;;
40959;SDS011;27842;52.272;8.052;2023-11-22T08:14:02;20.33;;;7.50;;
40959;SDS011;27842;52.272;8.052;2023-11-22T08:16:28;18.07;;;7.50;;
40959;SDS011;27842;52.272;8.052;2023-11-22T08:18:54;18.50;;;8.27;;
40959;SDS011;27842;52.272;8.052;2023-11-22T08:21:21;20.83;;;8.30;;
40959;SDS011;27842;52.272;8.052;2023-11-22T08:23:48;18.10;;;7.77;;
40959;SDS011;27842;52.272;8.052;2023-11-22T08:26:14;17.93;;;7.03;;
40959;SDS011;27842;52.272;8.052;2023-11-22T08:28:40;18.23;;;8.00;;
40959;SDS011;27842;52.272;8.052;2023-11-22T08:31:06;17.07;;;7.47;;
40959;SDS011;27842;52.272;8.052;2023-11-22T08:33:35;19.15;;;7.60;;
40959;SDS011;27842;52.272;8.052;2023-11-22T08:38:59;20.77;;;7.90;;
40959;SDS011;27842;52.272;8.052;2023-11-22T08:41:26;18.37;;;8.00;;
40959;SDS011;27842;52.272;8.052;2023-11-22T08:43:55;20.13;;;8.20;;
40959;SDS011;27842;52.272;8.052;2023-11-22T08:46:31;19.57;;;8.40;;
40959;SDS011;27842;52.272;8.052;2023-11-22T08:48:56;17.73;;;8.37;;
40959;SDS011;27842;52.272;8.052;2023-11-22T08:51:22;20.10;;;8.13;;
40959;SDS011;27842;52.272;8.052;2023-11-22T08:53:47;20.20;;;8.23;;
40959;SDS011;27842;52.272;8.052;2023-11-22T08:56:13;20.00;;;8.23;;
40959;SDS011;27842;52.272;8.052;2023-11-22T08:58:40;16.57;;;7.37;;
40959;SDS011;27842;52.272;8.052;2023-11-22T09:01:07;17.97;;;7.83;;
40959;SDS011;27842;52.272;8.052;2023-11-22T09:03:33;17.57;;;7.50;;
40959;SDS011;27842;52.272;8.052;2023-11-22T09:05:59;17.33;;;6.93;;
40959;SDS011;27842;52.272;8.052;2023-11-22T09:08:25;18.83;;;7.80;;
40959;SDS011;27842;52.272;8.052;2023-11-22T09:10:51;18.33;;;7.80;;
40959;SDS011;27842;52.272;8.052;2023-11-22T09:13:17;18.47;;;8.13;;
40959;SDS011;27842;52.272;8.052;2023-11-22T09:15:44;17.07;;;7.57;;
40959;SDS011;27842;52.272;8.052;2023-11-22T09:18:10;19.27;;;9.27;;
40959;SDS011;27842;52.272;8.052;2023-11-22T09:20:39;20.65;;;9.07;;
40959;SDS011;27842;52.272;8.052;2023-11-22T09:23:09;19.47;;;8.57;;
40959;SDS011;27842;52.272;8.052;2023-11-22T09:25:35;18.67;;;7.37;;
40959;SDS011;27842;52.272;8.052;2023-11-22T09:28:01;19.50;;;8.73;;
40959;SDS011;27842;52.272;8.052;2023-11-22T09:30:27;21.43;;;8.17;;
40959;SDS011;27842;52.272;8.052;2023-11-22T09:32:58;19.03;;;8.00;;
40959;SDS011;27842;52.272;8.052;2023-11-22T09:35:24;15.70;;;6.83;;
40959;SDS011;27842;52.272;8.052;2023-11-22T09:37:50;16.60;;;7.07;;
40959;SDS011;27842;52.272;8.052;2023-11-22T09:40:19;15.93;;;6.90;;
40959;SDS011;27842;52.272;8.052;2023-11-22T09:42:47;16.33;;;7.17;;
40959;SDS011;27842;52.272;8.052;2023-11-22T09:45:16;15.48;;;6.30;;
40959;SDS011;27842;52.272;8.052;2023-11-22T09:47:45;16.35;;;5.75;;
40959;SDS011;27842;52.272;8.052;2023-11-22T09:50:19;19.17;;;6.53;;
40959;SDS011;27842;52.272;8.052;2023-11-22T09:52:50;17.00;;;7.23;;
40959;SDS011;27842;52.272;8.052;2023-11-22T09:55:22;22.00;;;6.57;;
40959;SDS011;27842;52.272;8.052;2023-11-22T09:57:53;18.43;;;7.53;;
40959;SDS011;27842;52.272;8.052;2023-11-22T10:00:20;21.03;;;7.30;;
40959;SDS011;27842;52.272;8.052;2023-11-22T10:02:49;20.98;;;7.55;;
40959;SDS011;27842;52.272;8.052;2023-11-22T10:05:15;21.50;;;7.07;;
40959;SDS011;27842;52.272;8.052;2023-11-22T10:07:41;20.80;;;7.10;;
40959;SDS011;27842;52.272;8.052;2023-11-22T10:10:07;22.70;;;7.90;;
40959;SDS011;27842;52.272;8.052;2023-11-22T10:12:36;21.80;;;7.05;;
40959;SDS011;27842;52.272;8.052;2023-11-22T10:15:12;20.08;;;6.85;;
40959;SDS011;27842;52.272;8.052;2023-11-22T10:17:39;18.27;;;6.60;;
40959;SDS011;27842;52.272;8.052;2023-11-22T10:20:05;18.67;;;6.47;;
40959;SDS011;27842;52.272;8.052;2023-11-22T10:22:45;20.97;;;6.50;;
40959;SDS011;27842;52.272;8.052;2023-11-22T10:25:15;21.13;;;7.07;;
40959;SDS011;27842;52.272;8.052;2023-11-22T10:27:46;21.20;;;6.30;;
40959;SDS011;27842;52.272;8.052;2023-11-22T10:30:12;17.58;;;6.10;;
40959;SDS011;27842;52.272;8.052;2023-11-22T10:32:40;16.23;;;5.47;;
40959;SDS011;27842;52.272;8.052;2023-11-22T10:35:06;16.27;;;5.97;;
40959;SDS011;27842;52.272;8.052;2023-11-22T10:37:33;18.50;;;6.67;;
40959;SDS011;27842;52.272;8.052;2023-11-22T10:40:04;20.57;;;6.70;;
40959;SDS011;27842;52.272;8.052;2023-11-22T10:42:31;17.37;;;5.57;;
40959;SDS011;27842;52.272;8.052;2023-11-22T10:44:59;20.10;;;6.20;;
40959;SDS011;27842;52.272;8.052;2023-11-22T10:47:31;19.97;;;5.57;;
40959;SDS011;27842;52.272;8.052;2023-11-22T10:49:59;17.80;;;6.70;;
40959;SDS011;27842;52.272;8.052;2023-11-22T10:52:26;17.07;;;5.97;;
40959;SDS011;27842;52.272;8.052;2023-11-22T10:54:55;17.27;;;6.10;;
40959;SDS011;27842;52.272;8.052;2023-11-22T10:57:27;14.30;;;5.00;;
40959;SDS011;27842;52.272;8.052;2023-11-22T11:00:03;13.70;;;4.93;;
40959;SDS011;27842;52.272;8.052;2023-11-22T11:02:37;14.53;;;4.60;;
40959;SDS011;27842;52.272;8.052;2023-11-22T11:05:15;16.90;;;4.80;;
40959;SDS011;27842;52.272;8.052;2023-11-22T11:07:48;15.73;;;5.30;;
40959;SDS011;27842;52.272;8.052;2023-11-22T11:10:19;14.53;;;4.77;;
40959;SDS011;27842;52.272;8.052;2023-11-22T11:12:46;14.93;;;5.50;;
40959;SDS011;27842;52.272;8.052;2023-11-22T11:15:15;17.27;;;5.03;;
40959;SDS011;27842;52.272;8.052;2023-11-22T11:17:47;18.13;;;5.40;;
40959;SDS011;27842;52.272;8.052;2023-11-22T11:20:18;16.77;;;5.80;;
40959;SDS011;27842;52.272;8.052;2023-11-22T11:22:52;16.20;;;6.37;;
40959;SDS011;27842;52.272;8.052;2023-11-22T11:27:44;17.43;;;6.03;;
40959;SDS011;27842;52.272;8.052;2023-11-22T11:33:06;17.60;;;5.23;;
40959;SDS011;27842;52.272;8.052;2023-11-22T11:35:43;16.00;;;4.97;;
40959;SDS011;27842;52.272;8.052;2023-11-22T11:38:15;16.73;;;5.90;;
40959;SDS011;27842;52.272;8.052;2023-11-22T11:40:51;14.63;;;5.27;;
40959;SDS011;27842;52.272;8.052;2023-11-22T11:43:38;15.90;;;5.87;;
40959;SDS011;27842;52.272;8.052;2023-11-22T11:46:09;16.97;;;5.73;;
40959;SDS011;27842;52.272;8.052;2023-11-22T11:48:36;18.00;;;6.30;;
40959;SDS011;27842;52.272;8.052;2023-11-22T11:51:01;14.43;;;5.23;;
40959;SDS011;27842;52.272;8.052;2023-11-22T11:53:27;11.37;;;4.23;;
40959;SDS011;27842;52.272;8.052;2023-11-22T11:59:33;14.93;;;5.27;;
40959;SDS011;27842;52.272;8.052;2023-11-22T12:04:36;13.03;;;3.40;;
40959;SDS011;27842;52.272;8.052;2023-11-22T12:07:02;12.70;;;2.93;;
40959;SDS011;27842;52.272;8.052;2023-11-22T12:09:28;8.67;;;3.13;;
40959;SDS011;27842;52.272;8.052;2023-11-22T12:11:54;10.53;;;3.27;;
40959;SDS011;27842;52.272;8.052;2023-11-22T12:14:21;10.20;;;3.70;;
40959;SDS011;27842;52.272;8.052;2023-11-22T12:16:51;10.00;;;3.10;;
40959;SDS011;27842;52.272;8.052;2023-11-22T12:19:34;9.38;;;3.15;;
40959;SDS011;27842;52.272;8.052;2023-11-22T12:22:00;7.80;;;2.83;;
40959;SDS011;27842;52.272;8.052;2023-11-22T12:24:26;8.13;;;2.67;;
40959;SDS011;27842;52.272;8.052;2023-11-22T12:26:52;8.30;;;2.40;;
40959;SDS011;27842;52.272;8.052;2023-11-22T12:29:19;4.77;;;2.10;;
40959;SDS011;27842;52.272;8.052;2023-11-22T12:31:48;5.67;;;2.20;;
40959;SDS011;27842;52.272;8.052;2023-11-22T12:34:22;7.80;;;2.60;;
40959;SDS011;27842;52.272;8.052;2023-11-22T12:36:50;13.20;;;3.43;;
40959;SDS011;27842;52.272;8.052;2023-11-22T12:39:16;11.83;;;3.20;;
40959;SDS011;27842;52.272;8.052;2023-11-22T12:41:52;19.75;;;6.05;;
40959;SDS011;27842;52.272;8.052;2023-11-22T12:44:19;25.80;;;8.10;;
40959;SDS011;27842;52.272;8.052;2023-11-22T12:46:45;14.63;;;4.77;;
40959;SDS011;27842;52.272;8.052;2023-11-22T12:49:29;10.13;;;2.83;;
40959;SDS011;27842;52.272;8.052;2023-11-22T12:51:56;8.07;;;2.70;;
40959;SDS011;27842;52.272;8.052;2023-11-22T12:54:22;9.10;;;2.90;;
40959;SDS011;27842;52.272;8.052;2023-11-22T12:56:49;9.37;;;3.13;;
40959;SDS011;27842;52.272;8.052;2023-11-22T12:59:24;10.10;;;3.03;;
40959;SDS011;27842;52.272;8.052;2023-11-22T13:01:52;12.10;;;3.45;;
40959;SDS011;27842;52.272;8.052;2023-11-22T13:04:19;8.70;;;2.83;;
40959;SDS011;27842;52.272;8.052;2023-11-22T13:06:45;7.50;;;2.50;;
40959;SDS011;27842;52.272;8.052;2023-11-22T13:09:10;8.97;;;2.77;;
40959;SDS011;27842;52.272;8.052;2023-11-22T13:11:43;8.75;;;2.70;;
40959;SDS011;27842;52.272;8.052;2023-11-22T13:14:09;13.32;;;3.88;;
40959;SDS011;27842;52.272;8.052;2023-11-22T13:16:35;8.27;;;2.90;;
40959;SDS011;27842;52.272;8.052;2023-11-22T13:19:03;7.38;;;2.60;;
40959;SDS011;27842;52.272;8.052;2023-11-22T13:21:29;8.77;;;2.50;;
40959;SDS011;27842;52.272;8.052;2023-11-22T13:23:56;11.90;;;3.10;;
40959;SDS011;27842;52.272;8.052;2023-11-22T13:26:23;9.23;;;2.80;;
40959;SDS011;27842;52.272;8.052;2023-11-22T13:28:50;7.50;;;2.60;;
40959;SDS011;27842;52.272;8.052;2023-11-22T13:31:16;8.33;;;2.70;;
40959;SDS011;27842;52.272;8.052;2023-11-22T13:33:42;8.07;;;2.73;;
40959;SDS011;27842;52.272;8.052;2023-11-22T13:36:09;6.83;;;2.60;;
40959;SDS011;27842;52.272;8.052;2023-11-22T13:38:35;8.70;;;2.70;;
40959;SDS011;27842;52.272;8.052;2023-11-22T13:41:02;8.13;;;3.20;;
40959;SDS011;27842;52.272;8.052;2023-11-22T13:43:27;8.13;;;2.83;;
40959;SDS011;27842;52.272;8.052;2023-11-22T13:45:53;6.93;;;2.70;;
40959;SDS011;27842;52.272;8.052;2023-11-22T13:48:18;6.77;;;2.70;;
40959;SDS011;27842;52.272;8.052;2023-11-22T13:50:44;7.13;;;2.60;;
40959;SDS011;27842;52.272;8.052;2023-11-22T13:53:10;7.97;;;2.60;;
40959;SDS011;27842;52.272;8.052;2023-11-22T13:55:36;8.03;;;2.87;;
40959;SDS011;27842;52.272;8.052;2023-11-22T13:58:02;4.80;;;2.40;;
40959;SDS011;27842;52.272;8.052;2023-11-22T14:00:30;8.20;;;2.73;;
40959;SDS011;27842;52.272;8.052;2023-11-22T14:03:00;7.67;;;2.60;;
40959;SDS011;27842;52.272;8.052;2023-11-22T14:05:31;8.30;;;2.67;;
40959;SDS011;27842;52.272;8.052;2023-11-22T14:07:59;8.23;;;3.10;;
40959;SDS011;27842;52.272;8.052;2023-11-22T14:10:25;8.67;;;3.00;;
40959;SDS011;27842;52.272;8.052;2023-11-22T14:12:51;9.37;;;3.20;;
40959;SDS011;27842;52.272;8.052;2023-11-22T14:15:17;7.97;;;2.90;;
40959;SDS011;27842;52.272;8.052;2023-11-22T14:17:44;13.17;;;3.30;;
40959;SDS011;27842;52.272;8.052;2023-11-22T14:20:14;8.23;;;2.80;;
40959;SDS011;27842;52.272;8.052;2023-11-22T14:22:40;10.03;;;3.17;;
40959;SDS011;27842;52.272;8.052;2023-11-22T14:25:07;7.93;;;3.10;;
40959;SDS011;27842;52.272;8.052;2023-11-22T14:27:38;17.50;;;6.30;;
40959;SDS011;27842;52.272;8.052;2023-11-22T14:30:13;12.27;;;4.20;;
40959;SDS011;27842;52.272;8.052;2023-11-22T14:32:42;8.73;;;3.30;;
40959;SDS011;27842;52.272;8.052;2023-11-22T14:35:08;8.87;;;2.97;;
40959;SDS011;27842;52.272;8.052;2023-11-22T14:37:34;8.37;;;3.40;;
40959;SDS011;27842;52.272;8.052;2023-11-22T14:40:02;7.23;;;2.77;;
40959;SDS011;27842;52.272;8.052;2023-11-22T14:42:38;19.40;;;4.37;;
40959;SDS011;27842;52.272;8.052;2023-11-22T14:45:07;11.15;;;3.80;;
40959;SDS011;27842;52.272;8.052;2023-11-22T14:47:52;10.73;;;3.47;;
40959;SDS011;27842;52.272;8.052;2023-11-22T14:50:17;8.43;;;3.20;;
40959;SDS011;27842;52.272;8.052;2023-11-22T14:52:44;9.67;;;3.37;;
40959;SDS011;27842;52.272;8.052;2023-11-22T14:55:12;10.77;;;3.40;;
40959;SDS011;27842;52.272;8.052;2023-11-22T14:57:37;12.10;;;3.70;;